Time;durP1;ratioP1;P1;durP2;ratioP2;P2;SDS_P1;SDS_P2;PMS_P1;PMS_P2;Temp;Humidity;BMP_temperature;BMP_pressure;BME280_temperature;BME280_humidity;BME280_pressure;Samples;Min_cycle;Max_cycle;Signal;HPM_P1;HPM_P2
2022/04/29 00:00:31;;;;;;;;;;;11.20;72.70;;;;;;5096181;28;20032;-88
2022/04/29 00:02:57;;;;;;;4.25;1.48;;;11.20;73.30;;;;;;5096538;28;19907;-87
2022/04/29 00:05:24;;;;;;;;;;;11.10;73.60;;;;;;5095345;28;20512;-83
2022/04/29 00:07:50;;;;;;;3.97;1.75;;;11.10;74.40;;;;;;5111248;28;19998;-86
2022/04/29 00:10:16;;;;;;;;;;;11.10;75.10;;;;;;5112158;28;20142;-85
2022/04/29 00:12:43;;;;;;;5.47;1.90;;;10.90;77.50;;;;;;5095836;28;19911;-85
2022/04/29 00:15:11;;;;;;;7.45;1.90;;;10.90;79.20;;;;;;5096017;28;20030;-87
2022/04/29 00:17:37;;;;;;;3.53;1.58;;;10.90;80.50;;;;;;5113853;28;20031;-86
2022/04/29 00:20:05;;;;;;;4.40;1.70;;;10.80;81.90;;;;;;5113966;28;20056;-86
2022/04/29 00:22:30;;;;;;;3.83;1.65;;;10.70;82.70;;;;;;5095600;28;20038;-87
2022/04/29 00:24:56;;;;;;;;;;;10.70;83.50;;;;;;5094995;28;20031;-83
2022/04/29 00:27:21;;;;;;;6.03;2.20;;;10.70;86.50;;;;;;5110215;28;19964;-82
2022/04/29 00:29:47;;;;;;;;;;;10.70;87.20;;;;;;5110254;28;20070;-81
2022/04/29 00:32:12;;;;;;;4.97;1.98;;;10.60;87.70;;;;;;5092411;28;19904;-82
2022/04/29 00:34:38;;;;;;;;;;;10.50;89.30;;;;;;5112643;28;20527;-86
2022/04/29 00:37:04;;;;;;;4.50;1.60;;;10.40;91.80;;;;;;5095663;28;20379;-87
2022/04/29 00:39:29;;;;;;;3.17;1.45;;;10.40;91.60;;;;;;5092779;28;20027;-82
2022/04/29 00:41:55;;;;;;;3.60;1.92;;;10.30;93.60;;;;;;5092453;28;20074;-82
2022/04/29 00:44:21;;;;;;;2.55;1.48;;;10.20;93.50;;;;;;5111658;28;20020;-83
2022/04/29 00:46:47;;;;;;;6.63;1.52;;;10.10;93.30;;;;;;5093987;28;20035;-82
2022/04/29 00:49:13;;;;;;;;;;;10.20;93.00;;;;;;5093897;28;20031;-83
2022/04/29 00:51:43;;;;;;;5.28;1.50;;;10.10;93.90;;;;;;5093638;28;19911;-82
2022/04/29 00:54:12;;;;;;;3.90;1.80;;;10.10;94.00;;;;;;5092630;28;20039;-83
2022/04/29 00:56:41;;;;;;;3.72;1.63;;;10.20;95.40;;;;;;5092247;28;20468;-82
2022/04/29 00:59:15;;;;;;;7.20;1.80;;;10.20;93.10;;;;;;5091890;28;20039;-86
2022/04/29 01:01:43;;;;;;;9.55;2.53;;;10.20;93.00;;;;;;5112062;28;20116;-83
2022/04/29 01:04:14;;;;;;;4.25;1.60;;;10.30;93.00;;;;;;5094112;28;20051;-82
2022/04/29 01:06:39;;;;;;;5.22;1.70;;;10.30;92.40;;;;;;5093598;28;20028;-84
2022/04/29 01:09:05;;;;;;;;;;;10.30;93.10;;;;;;5112346;28;20112;-85
2022/04/29 01:11:31;;;;;;;7.15;1.92;;;10.30;91.70;;;;;;5095087;28;19933;-86
2022/04/29 01:13:57;;;;;;;4.80;2.05;;;10.40;90.70;;;;;;5113541;28;20035;-86
2022/04/29 01:16:23;;;;;;;;;;;10.40;89.70;;;;;;5094270;28;20020;-83
2022/04/29 01:18:51;;;;;;;3.38;1.52;;;10.50;86.10;;;;;;5094352;28;19926;-84
2022/04/29 01:21:17;;;;;;;3.88;1.70;;;10.60;86.10;;;;;;5095446;28;20041;-89
2022/04/29 01:23:43;;;;;;;;;;;10.80;83.80;;;;;;5094979;28;20024;-84
2022/04/29 01:26:10;;;;;;;3.15;1.52;;;11.10;80.30;;;;;;5094212;28;19969;-84
2022/04/29 01:28:36;;;;;;;9.73;2.33;;;11.20;77.20;;;;;;5094946;28;20404;-85
2022/04/29 01:31:03;;;;;;;4.22;1.52;;;11.40;76.70;;;;;;5094631;28;20114;-86
2022/04/29 01:33:29;;;;;;;3.40;1.65;;;11.50;73.70;;;;;;5094976;28;20487;-87
2022/04/29 01:35:55;;;;;;;2.78;1.38;;;11.50;72.80;;;;;;5094770;28;20031;-84
2022/04/29 01:38:21;;;;;;;;;;;11.60;72.00;;;;;;5095072;28;20020;-85
2022/04/29 01:40:47;;;;;;;4.15;1.30;;;11.60;71.50;;;;;;5111115;28;20405;-83
2022/04/29 01:43:13;;;;;;;2.97;1.63;;;11.70;70.60;;;;;;5092572;28;20062;-83
2022/04/29 01:45:38;;;;;;;;;;;11.90;69.40;;;;;;5093156;28;20484;-81
2022/04/29 01:48:04;;;;;;;5.85;1.55;;;11.80;68.70;;;;;;5092540;28;19907;-82
2022/04/29 01:50:30;;;;;;;;;;;11.90;68.90;;;;;;5113153;28;20020;-86
2022/04/29 01:52:55;;;;;;;7.38;1.38;;;11.80;69.60;;;;;;5096772;28;19904;-84
2022/04/29 01:55:21;;;;;;;;;;;11.70;70.80;;;;;;5113501;28;20105;-89
2022/04/29 01:57:50;;;;;;;3.58;1.00;;;11.50;72.90;;;;;;5115153;28;19923;-81
2022/04/29 02:00:17;;;;;;;2.42;1.20;;;11.40;74.70;;;;;;5114941;28;20024;-84
2022/04/29 02:02:43;;;;;;;2.40;1.55;;;11.20;78.10;;;;;;5096756;28;20028;-82
2022/04/29 02:05:09;;;;;;;3.67;1.77;;;11.00;81.60;;;;;;5096623;28;20027;-84
2022/04/29 02:07:35;;;;;;;3.72;1.63;;;10.90;85.30;;;;;;5097589;28;20151;-84
2022/04/29 02:10:00;;;;;;;;;;;10.70;88.50;;;;;;5115657;28;20052;-84
2022/04/29 02:12:26;;;;;;;4.40;1.83;;;10.60;89.80;;;;;;5115610;28;19953;-84
2022/04/29 02:14:52;;;;;;;;;;;10.50;90.20;;;;;;5115830;28;20035;-84
2022/04/29 02:17:17;;;;;;;4.72;1.30;;;10.40;92.80;;;;;;5115814;28;19908;-84
2022/04/29 02:19:43;;;;;;;;;;;10.30;92.90;;;;;;5097163;28;20519;-84
2022/04/29 02:22:09;;;;;;;4.78;1.55;;;10.30;92.70;;;;;;5095788;28;19908;-83
2022/04/29 02:24:36;;;;;;;3.72;1.33;;;10.40;93.10;;;;;;5096584;28;20035;-83
2022/04/29 02:27:03;;;;;;;3.50;1.80;;;10.40;92.90;;;;;;5097107;28;20020;-85
2022/04/29 02:29:29;;;;;;;3.45;1.90;;;10.40;93.90;;;;;;5096407;28;20038;-83
2022/04/29 02:31:55;;;;;;;;;;;10.40;94.50;;;;;;5097145;28;20020;-83
2022/04/29 02:34:21;;;;;;;5.88;1.73;;;10.40;95.30;;;;;;5096919;28;19939;-86
2022/04/29 02:36:47;;;;;;;;;;;10.40;94.00;;;;;;5098288;28;20576;-86
2022/04/29 02:39:13;;;;;;;3.70;1.30;;;10.70;92.30;;;;;;5097556;28;19904;-87
2022/04/29 02:41:40;;;;;;;3.55;1.67;;;10.70;91.40;;;;;;5097756;28;20048;-86
2022/04/29 02:44:06;;;;;;;3.25;1.73;;;10.80;91.20;;;;;;5097684;28;20120;-86
2022/04/29 02:46:31;;;;;;;;;;;10.80;91.10;;;;;;5098129;28;20049;-86
2022/04/29 02:48:57;;;;;;;4.65;1.95;;;10.70;91.40;;;;;;5097499;28;20006;-86
2022/04/29 02:51:23;;;;;;;;;;;10.70;91.60;;;;;;5095718;28;20414;-84
2022/04/29 02:53:48;;;;;;;3.95;1.58;;;10.50;93.10;;;;;;5094865;28;19907;-86
2022/04/29 02:56:14;;;;;;;3.65;1.63;;;10.40;93.30;;;;;;5115841;28;20023;-86
2022/04/29 02:58:39;;;;;;;4.53;1.55;;;10.30;94.70;;;;;;5097535;28;20047;-86
2022/04/29 03:01:06;;;;;;;;;;;10.20;95.20;;;;;;5098061;28;20063;-87
2022/04/29 03:03:31;;;;;;;3.33;1.50;;;10.10;95.60;;;;;;5096944;28;19911;-84
2022/04/29 03:05:57;;;;;;;;;;;10.00;95.70;;;;;;5114857;28;20028;-85
2022/04/29 03:08:22;;;;;;;4.50;2.00;;;10.00;96.20;;;;;;5096936;28;19903;-85
2022/04/29 03:10:48;;;;;;;;;;;9.90;96.30;;;;;;5096815;28;20031;-83
2022/04/29 03:13:15;;;;;;;4.57;1.70;;;9.90;96.40;;;;;;5095247;28;19911;-84
2022/04/29 03:15:41;;;;;;;9.35;2.63;;;9.90;96.50;;;;;;5096267;28;20113;-85
2022/04/29 03:18:18;;;;;;;;;;;10.00;96.80;;;;;;5115234;28;20070;-86
2022/04/29 03:20:46;;;;;;;4.07;1.67;;;10.20;95.50;;;;;;5096715;28;20416;-84
2022/04/29 03:23:12;;;;;;;9.50;1.83;;;10.50;92.90;;;;;;5096450;28;20027;-88
2022/04/29 03:25:40;;;;;;;3.20;1.55;;;10.70;91.50;;;;;;5097256;28;20051;-85
2022/04/29 03:28:06;;;;;;;2.22;1.02;;;10.90;90.40;;;;;;5096097;28;20035;-85
2022/04/29 03:30:33;;;;;;;5.65;1.30;;;11.00;88.30;;;;;;5114581;28;20038;-87
2022/04/29 03:33:01;;;;;;;4.80;1.63;;;11.20;81.90;;;;;;5114954;28;20079;-88
2022/04/29 03:35:26;;;;;;;3.55;1.50;;;11.40;79.00;;;;;;5096857;28;20027;-86
2022/04/29 03:37:53;;;;;;;;;;;11.60;74.80;;;;;;5097494;28;20020;-86
2022/04/29 03:40:24;;;;;;;5.53;1.85;;;11.90;72.40;;;;;;5097299;28;19911;-87
2022/04/29 03:42:51;;;;;;;3.58;1.38;;;12.00;71.40;;;;;;5101728;28;20050;-87
2022/04/29 03:45:18;;;;;;;2.72;1.25;;;12.00;69.60;;;;;;5097196;28;20036;-88
2022/04/29 03:47:43;;;;;;;3.53;1.33;;;12.10;69.70;;;;;;5098238;28;20023;-88
2022/04/29 03:50:10;;;;;;;;;;;12.10;68.60;;;;;;5117347;28;20062;-88
2022/04/29 03:52:59;;;;;;;3.97;1.50;;;12.20;67.30;;;;;;5116445;28;19904;-86
2022/04/29 03:55:30;;;;;;;6.38;1.80;;;12.40;64.90;;;;;;5096108;28;20444;-84
2022/04/29 03:57:57;;;;;;;4.85;1.60;;;12.50;63.60;;;;;;5095785;28;20044;-85
2022/04/29 04:00:31;;;;;;;3.67;1.05;;;12.60;63.10;;;;;;5113757;28;20059;-82
2022/04/29 04:02:59;;;;;;;11.27;2.08;;;12.60;61.70;;;;;;5130061;27;20050;-89
2022/04/29 04:05:25;;;;;;;3.90;1.45;;;12.70;60.70;;;;;;5134475;27;20021;-89
2022/04/29 04:07:51;;;;;;;;;;;12.80;59.10;;;;;;5117138;27;20023;-88
2022/04/29 04:10:17;;;;;;;3.70;1.58;;;13.00;58.40;;;;;;5116056;27;19919;-89
2022/04/29 04:12:46;;;;;;;;;;;13.10;57.90;;;;;;5115602;27;20374;-88
2022/04/29 04:15:13;;;;;;;6.57;1.92;;;13.20;56.60;;;;;;5115345;27;19903;-88
2022/04/29 04:17:39;;;;;;;7.60;1.58;;;13.40;56.00;;;;;;5116571;27;20498;-87
2022/04/29 04:20:07;;;;;;;3.60;1.30;;;13.60;55.30;;;;;;5115898;27;20118;-87
2022/04/29 04:22:36;;;;;;;3.25;1.00;;;13.70;54.30;;;;;;5115976;27;20119;-87
2022/04/29 04:25:06;;;;;;;4.97;1.55;;;13.90;52.60;;;;;;5112043;28;20023;-88
2022/04/29 04:27:32;;;;;;;5.20;2.70;;;13.90;52.00;;;;;;5095094;28;20050;-87
2022/04/29 04:29:58;;;;;;;;;;;14.00;52.20;;;;;;5114213;27;20495;-88
2022/04/29 04:32:24;;;;;;;6.00;1.95;;;14.00;51.70;;;;;;5115816;27;19907;-87
2022/04/29 04:34:53;;;;;;;9.30;1.88;;;14.10;50.90;;;;;;5134615;27;20043;-88
2022/04/29 04:37:23;;;;;;;2.97;1.17;;;14.20;50.40;;;;;;5115923;27;20484;-88
2022/04/29 04:39:50;;;;;;;8.90;1.77;;;14.30;50.40;;;;;;5133920;27;20027;-88
2022/04/29 04:42:17;;;;;;;3.42;1.40;;;14.50;49.40;;;;;;5116149;27;20118;-87
2022/04/29 04:44:45;;;;;;;6.93;1.40;;;14.60;49.20;;;;;;5133913;27;20043;-87
2022/04/29 04:47:11;;;;;;;6.60;1.40;;;14.70;48.40;;;;;;5115741;27;20114;-87
2022/04/29 04:49:37;;;;;;;;;;;14.90;47.80;;;;;;5134380;27;20161;-88
2022/04/29 04:52:02;;;;;;;6.55;1.63;;;15.00;47.00;;;;;;5115755;28;19957;-88
2022/04/29 04:54:28;;;;;;;;;;;15.20;46.20;;;;;;5116212;28;20491;-88
2022/04/29 04:56:54;;;;;;;9.88;1.63;;;15.40;45.80;;;;;;5115066;28;19908;-87
2022/04/29 04:59:19;;;;;;;;;;;15.70;44.60;;;;;;5116053;28;20588;-87
2022/04/29 05:01:45;;;;;;;3.38;1.65;;;15.90;44.00;;;;;;5115714;28;19912;-87
2022/04/29 05:04:10;;;;;;;;;;;15.90;44.40;;;;;;5116784;28;20026;-87
2022/04/29 05:06:37;;;;;;;6.57;1.73;;;16.00;43.80;;;;;;5115418;28;19911;-87
2022/04/29 05:09:06;;;;;;;10.13;1.83;;;16.10;43.60;;;;;;5115323;28;20019;-88
2022/04/29 05:11:32;;;;;;;4.45;1.40;;;16.30;42.60;;;;;;5115363;28;20038;-88
2022/04/29 05:13:58;;;;;;;;;;;16.60;41.40;;;;;;5115862;28;20394;-88
2022/04/29 05:16:24;;;;;;;7.07;1.20;;;16.80;40.40;;;;;;5115382;28;20340;-88
2022/04/29 05:18:50;;;;;;;7.97;1.67;;;17.10;40.40;;;;;;5115564;28;20030;-87
2022/04/29 05:21:16;;;;;;;2.35;1.30;;;17.20;39.60;;;;;;5115780;28;20118;-88
2022/04/29 05:23:42;;;;;;;4.90;1.30;;;17.40;39.10;;;;;;5115846;28;20016;-88
2022/04/29 05:26:08;;;;;;;4.28;1.20;;;17.50;38.80;;;;;;5115613;28;20027;-87
2022/04/29 05:28:34;;;;;;;3.40;1.15;;;17.40;39.30;;;;;;5115435;28;20019;-88
2022/04/29 05:31:01;;;;;;;2.78;1.20;;;17.60;38.70;;;;;;5118954;27;20031;-88
2022/04/29 05:33:27;;;;;;;5.53;1.38;;;17.70;38.90;;;;;;5118016;27;20034;-87
2022/04/29 05:35:52;;;;;;;2.85;1.25;;;17.90;38.00;;;;;;5117081;27;20023;-88
2022/04/29 05:38:18;;;;;;;5.25;1.35;;;18.10;37.50;;;;;;5119092;27;20027;-89
2022/04/29 05:43:28;;;;;;;2.47;1.45;;;19.00;34.10;;;;;;5137671;27;20071;-87
2022/04/29 05:45:54;;;;;;;7.68;1.40;;;19.50;33.30;;;;;;5119073;27;20110;-89
2022/04/29 05:48:20;;;;;;;3.30;1.20;;;19.80;32.30;;;;;;5119185;27;20104;-87
2022/04/29 05:50:46;;;;;;;3.40;1.45;;;19.90;31.80;;;;;;5137337;27;20475;-87
2022/04/29 05:53:12;;;;;;;2.70;1.30;;;20.00;31.10;;;;;;5119573;27;20026;-87
2022/04/29 05:55:38;;;;;;;3.00;1.67;;;20.10;30.70;;;;;;5119205;27;20033;-85
2022/04/29 05:58:04;;;;;;;3.17;1.42;;;20.60;30.00;;;;;;5118773;27;20035;-87
2022/04/29 06:00:30;;;;;;;5.22;1.10;;;20.90;29.30;;;;;;5119262;27;20092;-87
2022/04/29 06:02:56;;;;;;;4.47;1.27;;;21.00;29.50;;;;;;5117581;27;20019;-87
2022/04/29 06:05:22;;;;;;;5.25;0.93;;;21.60;28.50;;;;;;5118805;27;20031;-87
2022/04/29 06:07:48;;;;;;;3.28;1.08;;;22.10;26.80;;;;;;5119035;27;20544;-86
2022/04/29 06:10:14;;;;;;;4.80;1.17;;;22.00;27.60;;;;;;5118826;27;20084;-83
2022/04/29 06:12:41;;;;;;;3.55;1.23;;;22.40;27.00;;;;;;5118699;27;20473;-87
2022/04/29 06:15:12;;;;;;;3.47;1.42;;;22.60;26.30;;;;;;5118706;27;20062;-86
2022/04/29 06:17:37;;;;;;;2.45;1.88;;;22.50;27.60;;;;;;5118937;27;20061;-85
2022/04/29 06:20:03;;;;;;;3.88;1.30;;;23.20;25.50;;;;;;5118444;27;20023;-86
2022/04/29 06:22:29;;;;;;;9.48;1.42;;;23.60;24.40;;;;;;5119120;27;20121;-87
2022/04/29 06:24:55;;;;;;;2.80;1.35;;;23.30;25.30;;;;;;5118188;27;20054;-87
2022/04/29 06:27:21;;;;;;;2.20;1.33;;;23.60;26.20;;;;;;5117907;27;20023;-87
2022/04/29 06:29:46;;;;;;;7.72;1.80;;;24.20;24.30;;;;;;5118380;27;20023;-86
2022/04/29 06:32:12;;;;;;;4.43;1.33;;;24.40;23.40;;;;;;5136544;27;20484;-89
2022/04/29 06:34:38;;;;;;;4.72;1.63;;;24.60;24.40;;;;;;5118119;27;20136;-87
2022/04/29 06:37:05;;;;;;;3.17;1.30;;;25.10;23.30;;;;;;5137533;27;20026;-88
2022/04/29 06:39:30;;;;;;;4.05;1.52;;;25.00;23.20;;;;;;5118172;27;20479;-88
2022/04/29 06:41:56;;;;;;;3.90;1.70;;;25.20;21.90;;;;;;5117427;27;20037;-88
2022/04/29 06:44:22;;;;;;;4.80;1.70;;;25.00;22.80;;;;;;5118129;27;20055;-87
2022/04/29 06:46:50;;;;;;;7.63;1.67;;;24.50;23.20;;;;;;5117508;27;20483;-88
2022/04/29 06:49:16;;;;;;;6.03;2.17;;;24.50;23.00;;;;;;5118165;27;20033;-88
2022/04/29 06:51:42;;;;;;;4.05;1.90;;;24.80;22.40;;;;;;5117854;27;20130;-88
2022/04/29 06:54:08;;;;;;;5.03;1.70;;;24.30;23.40;;;;;;5117910;27;20058;-88
2022/04/29 06:56:33;;;;;;;5.82;1.60;;;24.00;23.90;;;;;;5136669;27;20027;-89
2022/04/29 06:58:59;;;;;;;4.95;1.50;;;24.20;23.50;;;;;;5117486;27;20047;-87
2022/04/29 07:01:25;;;;;;;6.53;1.80;;;24.20;23.60;;;;;;5135989;27;20106;-88
2022/04/29 07:03:51;;;;;;;5.05;1.98;;;24.40;23.20;;;;;;5118412;27;20415;-88
2022/04/29 07:06:17;;;;;;;3.33;2.00;;;23.80;24.50;;;;;;5118022;27;20031;-87
2022/04/29 07:08:43;;;;;;;9.68;2.60;;;24.00;24.00;;;;;;5118260;27;20019;-88
2022/04/29 07:11:09;;;;;;;5.05;1.67;;;24.00;23.90;;;;;;5117245;27;20031;-88
2022/04/29 07:13:34;;;;;;;7.35;1.90;;;24.30;23.00;;;;;;5117482;27;20027;-88
2022/04/29 07:16:00;;;;;;;3.50;1.92;;;24.30;23.10;;;;;;5117072;27;20113;-88
2022/04/29 07:18:26;;;;;;;3.85;2.28;;;24.40;23.00;;;;;;5135585;27;20027;-88
2022/04/29 07:20:51;;;;;;;4.43;1.90;;;24.30;23.40;;;;;;5117303;27;20027;-87
2022/04/29 07:23:17;;;;;;;5.15;2.00;;;24.60;22.10;;;;;;5117377;27;20438;-87
2022/04/29 07:25:43;;;;;;;5.22;2.03;;;24.40;22.70;;;;;;5117387;27;20404;-87
2022/04/29 07:28:08;;;;;;;4.70;2.28;;;24.50;22.60;;;;;;5116829;27;20053;-87
2022/04/29 07:30:35;;;;;;;4.40;2.05;;;24.30;22.80;;;;;;5117722;27;20027;-88
2022/04/29 07:33:00;;;;;;;6.10;2.13;;;24.50;22.60;;;;;;5116789;27;20495;-86
2022/04/29 07:43:38;;;;;;;5.07;2.00;;;24.50;22.40;;;;;;5135451;27;20062;-88
2022/04/29 07:46:05;;;;;;;4.45;1.90;;;24.70;22.50;;;;;;5116640;27;20023;-89
2022/04/29 07:48:31;;;;;;;3.20;2.00;;;24.60;23.50;;;;;;5117120;27;20483;-88
2022/04/29 07:50:57;;;;;;;3.67;2.13;;;24.70;22.70;;;;;;5116325;27;20134;-88
2022/04/29 07:53:23;;;;;;;2.55;1.98;;;24.70;22.10;;;;;;5115333;27;20023;-87
2022/04/29 07:55:49;;;;;;;4.13;2.00;;;24.70;21.30;;;;;;5134705;27;20098;-86
2022/04/29 07:58:14;;;;;;;4.95;2.53;;;24.60;22.60;;;;;;5116047;27;20046;-85
2022/04/29 08:00:41;;;;;;;4.40;2.80;;;24.80;22.30;;;;;;5116653;27;20138;-90
2022/04/29 08:03:06;;;;;;;7.00;2.47;;;25.00;22.20;;;;;;5115327;27;20027;-87
2022/04/29 08:05:33;;;;;;;3.78;1.88;;;24.80;22.60;;;;;;5134290;27;20445;-87
2022/04/29 08:08:01;;;;;;;4.88;2.30;;;24.60;22.60;;;;;;5133581;27;20479;-86
2022/04/29 08:10:31;;;;;;;5.50;1.88;;;24.80;22.40;;;;;;5116756;27;20016;-88
2022/04/29 08:12:58;;;;;;;2.60;1.80;;;24.80;22.10;;;;;;5115533;27;20039;-87
2022/04/29 08:15:27;;;;;;;6.57;2.13;;;24.50;23.20;;;;;;5113640;27;20170;-85
2022/04/29 08:17:53;;;;;;;3.47;1.80;;;24.70;23.00;;;;;;5115580;27;20079;-87
2022/04/29 08:20:19;;;;;;;6.00;1.75;;;24.70;22.30;;;;;;5134543;27;20118;-87
2022/04/29 08:22:45;;;;;;;9.70;2.22;;;24.70;22.00;;;;;;5115452;27;20030;-87
2022/04/29 08:25:11;;;;;;;4.93;1.83;;;24.80;21.90;;;;;;5114495;27;20022;-85
2022/04/29 08:27:37;;;;;;;6.63;1.80;;;24.90;23.10;;;;;;5114088;27;20031;-84
2022/04/29 08:30:06;;;;;;;5.15;1.75;;;25.30;21.90;;;;;;5114327;27;20026;-84
2022/04/29 08:32:43;;;;;;;4.03;1.73;;;25.10;23.00;;;;;;5115283;28;20027;-88
2022/04/29 08:35:11;;;;;;;7.38;1.90;;;25.30;22.80;;;;;;5114825;27;20030;-87
2022/04/29 08:37:42;;;;;;;2.85;1.52;;;25.40;21.50;;;;;;5114860;28;20494;-85
2022/04/29 08:40:09;;;;;;;2.72;1.60;;;25.00;23.40;;;;;;5114443;27;20038;-86
2022/04/29 08:42:40;;;;;;;10.32;1.77;;;25.00;22.70;;;;;;5115615;27;20027;-85
2022/04/29 08:45:12;;;;;;;4.60;1.80;;;25.10;22.10;;;;;;5114340;27;20019;-85
2022/04/29 08:47:40;;;;;;;3.55;1.80;;;25.20;23.10;;;;;;5118733;27;20096;-86
2022/04/29 08:50:14;;;;;;;7.07;1.77;;;25.50;23.90;;;;;;5107686;27;20487;-85
2022/04/29 08:52:41;;;;;;;6.13;1.95;;;25.60;21.70;;;;;;5119330;27;20384;-85
2022/04/29 09:00:41;;;;;;;4.82;1.83;;;25.90;21.70;;;;;;5120721;28;20042;-86
2022/04/29 09:03:21;;;;;;;4.57;1.80;;;26.20;21.10;;;;;;5101018;28;20050;-86
2022/04/29 09:05:48;;;;;;;5.10;1.92;;;26.00;20.50;;;;;;5109048;27;20047;-85
2022/04/29 09:08:16;;;;;;;7.20;1.77;;;26.10;20.20;;;;;;5119228;27;20039;-84
2022/04/29 09:10:50;;;;;;;7.18;2.05;;;25.50;20.70;;;;;;5111101;27;20088;-85
2022/04/29 09:13:24;;;;;;;2.80;1.52;;;25.50;19.50;;;;;;5123021;27;20043;-86
2022/04/29 09:15:57;;;;;;;4.78;1.52;;;25.70;20.80;;;;;;5118779;27;20053;-86
2022/04/29 09:18:40;;;;;;;1.70;1.08;;;26.00;20.30;;;;;;5113263;27;20046;-84
2022/04/29 09:21:13;;;;;;;2.97;1.60;;;26.10;20.90;;;;;;5115404;27;20107;-85
2022/04/29 09:23:54;;;;;;;4.82;1.90;;;26.20;21.10;;;;;;5121400;27;20715;-85
2022/04/29 09:26:27;;;;;;;2.83;1.50;;;26.70;20.00;;;;;;5115962;27;20673;-85
2022/04/29 09:28:55;;;;;;;4.43;1.60;;;26.40;20.10;;;;;;5115087;27;20058;-86
2022/04/29 09:31:20;;;;;;;4.88;1.80;;;25.50;19.80;;;;;;5120240;27;20075;-86
2022/04/29 09:33:57;;;;;;;2.60;1.40;;;25.10;20.00;;;;;;5117950;27;20044;-86
2022/04/29 09:36:26;;;;;;;2.50;1.60;;;25.00;19.40;;;;;;5114829;27;20069;-86
2022/04/29 09:41:54;;;;;;;3.92;2.00;;;23.40;21.50;;;;;;5115676;27;20046;-87
2022/04/29 09:44:45;;;;;;;14.43;1.60;;;24.00;21.80;;;;;;5115034;27;20050;-86
2022/04/29 09:47:21;;;;;;;3.85;1.42;;;23.90;22.90;;;;;;5095278;27;20093;-86
2022/04/29 09:49:55;;;;;;;2.07;1.20;;;23.40;22.60;;;;;;5099220;27;20118;-87
2022/04/29 09:52:22;;;;;;;3.47;1.50;;;22.80;21.70;;;;;;5080898;28;20273;-86
2022/04/29 09:54:48;;;;;;;3.75;1.58;;;22.40;22.00;;;;;;5092670;28;20039;-86
2022/04/29 09:57:24;;;;;;;5.07;1.58;;;21.80;23.50;;;;;;5098084;27;20134;-88
2022/04/29 09:59:53;;;;;;;2.72;1.35;;;21.60;23.60;;;;;;5099992;28;20040;-87
2022/04/29 10:02:22;;;;;;;4.05;1.88;;;21.40;24.30;;;;;;5092320;28;20047;-87
2022/04/29 10:04:49;;;;;;;2.58;1.27;;;21.60;24.00;;;;;;5110373;27;20089;-86
2022/04/29 10:07:17;;;;;;;4.25;1.50;;;21.40;23.00;;;;;;5110785;27;20035;-85
2022/04/29 10:09:48;;;;;;;2.05;1.45;;;22.00;23.50;;;;;;5123996;27;20027;-87
2022/04/29 10:12:19;;;;;;;3.85;1.42;;;22.40;23.80;;;;;;5124173;27;20426;-88
2022/04/29 10:14:47;;;;;;;3.47;1.65;;;23.00;21.60;;;;;;5140128;27;20034;-86
2022/04/29 10:22:51;;;;;;;8.32;1.73;;;21.80;20.00;;;;;;5136775;27;20493;-87
2022/04/29 10:25:20;;;;;;;2.78;1.20;;;21.60;20.90;;;;;;5136292;27;20176;-88
2022/04/29 10:27:46;;;;;;;2.50;1.30;;;21.20;21.40;;;;;;5118293;27;20023;-86
2022/04/29 10:30:12;;;;;;;2.92;1.10;;;20.80;21.80;;;;;;5118129;27;20737;-87
2022/04/29 10:32:59;;;;;;;3.88;1.50;;;20.80;20.90;;;;;;5136061;27;20443;-86
2022/04/29 10:35:43;;;;;;;3.50;1.35;;;20.70;21.10;;;;;;5136323;27;20027;-87
2022/04/29 10:38:21;;;;;;;4.03;1.23;;;20.70;21.70;;;;;;5136062;27;20027;-86
2022/04/29 10:41:07;;;;;;;2.42;1.40;;;20.80;21.80;;;;;;5136029;27;20123;-85
2022/04/29 10:44:06;;;;;;;5.33;1.40;;;21.00;21.70;;;;;;5136383;27;20023;-87
2022/04/29 10:46:39;;;;;;;4.00;1.33;;;21.00;23.30;;;;;;5080768;27;20039;-86
2022/04/29 10:49:33;;;;;;;3.60;1.40;;;21.30;22.30;;;;;;5117776;27;20031;-87
2022/04/29 10:52:00;;;;;;;8.25;1.27;;;21.60;23.20;;;;;;5117437;27;20027;-86
2022/04/29 10:54:40;;;;;;;2.22;1.40;;;21.80;23.90;;;;;;5133731;27;20022;-86
2022/04/29 10:57:08;;;;;;;2.53;1.38;;;22.20;23.40;;;;;;5115373;27;20118;-87
2022/04/29 10:59:59;;;;;;;3.47;1.17;;;22.40;22.10;;;;;;5135746;27;20022;-87
2022/04/29 11:02:32;;;;;;;2.58;1.50;;;22.60;21.20;;;;;;5117626;27;20065;-87
2022/04/29 11:05:00;;;;;;;2.55;1.73;;;22.40;22.20;;;;;;5117188;27;20132;-87
2022/04/29 11:07:46;;;;;;;2.95;1.58;;;22.20;21.90;;;;;;5117641;27;20023;-83
2022/04/29 11:10:19;;;;;;;2.70;1.42;;;21.70;22.70;;;;;;5117232;27;20027;-86
2022/04/29 11:13:00;;;;;;;4.43;1.42;;;21.30;24.80;;;;;;5116901;27;20118;-86
2022/04/29 11:15:45;;;;;;;1.95;1.40;;;21.20;24.00;;;;;;5117542;27;20030;-85
2022/04/29 11:18:19;;;;;;;2.88;1.20;;;21.10;22.60;;;;;;5116744;27;20048;-86
2022/04/29 11:20:47;;;;;;;3.42;1.40;;;21.00;22.30;;;;;;5117184;27;20576;-87
2022/04/29 11:26:00;;;;;;;5.70;1.35;;;21.40;22.70;;;;;;5135593;27;20109;-87
2022/04/29 11:28:30;;;;;;;13.35;2.20;;;21.70;23.70;;;;;;5116879;27;20026;-85
2022/04/29 11:31:10;;;;;;;5.35;1.70;;;21.80;23.50;;;;;;5116593;27;20031;-87
2022/04/29 11:33:37;;;;;;;2.67;1.00;;;21.70;22.60;;;;;;5116129;27;20026;-85
2022/04/29 11:36:05;;;;;;;4.80;1.55;;;21.40;21.80;;;;;;5116791;27;20062;-86
2022/04/29 11:38:38;;;;;;;4.25;1.15;;;21.30;21.40;;;;;;5117325;27;20360;-86
2022/04/29 11:41:05;;;;;;;3.40;1.40;;;21.30;23.00;;;;;;5115856;27;20035;-86
2022/04/29 11:43:30;;;;;;;2.65;1.33;;;21.20;21.90;;;;;;5116407;27;20038;-86
2022/04/29 11:46:07;;;;;;;3.72;1.65;;;21.20;22.30;;;;;;5115831;27;20019;-85
2022/04/29 11:48:36;;;;;;;2.38;1.23;;;21.30;23.20;;;;;;5116796;27;20506;-85
2022/04/29 11:51:04;;;;;;;6.15;1.40;;;21.50;22.00;;;;;;5115856;27;20062;-86
2022/04/29 11:53:31;;;;;;;4.03;1.38;;;21.50;22.60;;;;;;5116020;27;20027;-86
2022/04/29 11:55:57;;;;;;;2.85;1.45;;;21.60;23.70;;;;;;5116297;27;20023;-85
2022/04/29 11:58:27;;;;;;;11.10;1.58;;;21.80;22.90;;;;;;5134413;27;20503;-85
2022/04/29 12:00:56;;;;;;;3.70;1.65;;;22.10;23.40;;;;;;5115704;27;20415;-85
2022/04/29 12:03:23;;;;;;;4.05;1.52;;;22.00;22.90;;;;;;5115393;27;20046;-85
2022/04/29 12:05:49;;;;;;;3.38;1.67;;;21.70;24.10;;;;;;5115809;27;20034;-86
2022/04/29 12:08:16;;;;;;;5.60;1.80;;;21.40;24.20;;;;;;5116393;27;20027;-86
2022/04/29 12:10:44;;;;;;;3.60;1.73;;;21.30;24.80;;;;;;5115666;27;20072;-87
2022/04/29 12:13:10;;;;;;;7.82;1.52;;;21.30;25.20;;;;;;5115846;27;20119;-86
2022/04/29 12:15:38;;;;;;;2.03;1.02;;;21.60;24.20;;;;;;5115932;27;20110;-86
2022/04/29 12:18:12;;;;;;;6.13;1.77;;;21.90;23.90;;;;;;5115429;27;20483;-85
2022/04/29 12:20:38;;;;;;;3.65;1.35;;;22.10;22.30;;;;;;5115382;27;20035;-85
2022/04/29 12:23:36;;;;;;;8.65;1.38;;;22.10;22.00;;;;;;5115067;27;20034;-87
2022/04/29 12:26:03;;;;;;;3.88;1.63;;;22.30;22.60;;;;;;5114685;27;20487;-86
2022/04/29 12:28:34;;;;;;;3.58;1.35;;;22.50;23.10;;;;;;5115316;27;20068;-84
2022/04/29 12:36:45;;;;;;;6.32;1.35;;;22.20;20.80;;;;;;5133553;27;20072;-85
2022/04/29 12:39:11;;;;;;;3.28;1.40;;;22.20;21.80;;;;;;5133098;27;20023;-85
2022/04/29 12:41:36;;;;;;;7.00;1.50;;;22.10;22.30;;;;;;5114766;27;20038;-85
2022/04/29 12:45:03;;;;;;;3.75;1.73;;;22.00;21.90;;;;;;5115730;27;20487;-85
2022/04/29 12:47:01;;;;;;;8.52;1.42;;;21.80;22.90;;;;;;5133423;27;20067;-87
2022/04/29 12:49:27;;;;;;;4.32;1.20;;;21.70;23.10;;;;;;5115204;27;20073;-86
2022/04/29 12:52:00;;;;;;;8.55;1.70;;;21.40;23.10;;;;;;5115412;27;20513;-86
2022/04/29 12:54:27;;;;;;;4.60;1.40;;;21.10;23.40;;;;;;5115233;27;20038;-85
2022/04/29 12:56:53;;;;;;;2.33;0.93;;;21.00;24.20;;;;;;5133182;27;20411;-86
2022/04/29 12:59:24;;;;;;;6.30;1.20;;;20.90;23.80;;;;;;5115181;28;20125;-86
2022/04/29 13:01:50;;;;;;;2.42;1.33;;;20.90;23.70;;;;;;5114908;28;20043;-86
2022/04/29 13:04:16;;;;;;;5.20;1.40;;;20.90;23.20;;;;;;5115040;28;20023;-85
2022/04/29 13:06:42;;;;;;;4.28;1.33;;;21.20;22.40;;;;;;5133575;28;20503;-85
2022/04/29 13:09:07;;;;;;;4.97;1.80;;;21.50;20.70;;;;;;5114671;28;20026;-85
2022/04/29 13:11:33;;;;;;;3.25;1.50;;;21.50;21.30;;;;;;5115116;28;20028;-85
2022/04/29 13:13:59;;;;;;;4.05;1.40;;;21.50;21.00;;;;;;5115005;28;20019;-85
2022/04/29 13:16:25;;;;;;;3.10;1.30;;;21.50;21.70;;;;;;5115300;28;20023;-86
2022/04/29 13:18:51;;;;;;;4.68;1.48;;;21.60;22.00;;;;;;5115120;28;20391;-85
2022/04/29 13:21:17;;;;;;;3.90;1.35;;;21.60;22.50;;;;;;5115107;28;20024;-85
2022/04/29 13:23:44;;;;;;;3.50;1.25;;;21.70;21.80;;;;;;5115376;28;20030;-86
2022/04/29 13:26:13;;;;;;;2.35;1.00;;;21.70;22.40;;;;;;5115317;28;20023;-85
2022/04/29 13:28:40;;;;;;;2.15;1.30;;;21.70;21.20;;;;;;5115345;28;20520;-86
2022/04/29 13:31:06;;;;;;;6.13;1.23;;;21.70;21.20;;;;;;5113552;28;20487;-86
2022/04/29 13:33:33;;;;;;;3.50;1.13;;;21.60;21.20;;;;;;5112291;28;20227;-85